sensor_id;sensor_type;location;lat;lon;timestamp;P1;durP1;ratioP1;P2;durP2;ratioP2
45065;SDS011;30830;53.704;10.004;2024-03-02T00:00:12;19.65;;;13.15;;
45065;SDS011;30830;53.704;10.004;2024-03-02T00:02:41;20.33;;;13.32;;
45065;SDS011;30830;53.704;10.004;2024-03-02T00:05:11;22.08;;;12.82;;
45065;SDS011;30830;53.704;10.004;2024-03-02T00:07:38;21.23;;;13.60;;
45065;SDS011;30830;53.704;10.004;2024-03-02T00:10:07;18.98;;;13.00;;
45065;SDS011;30830;53.704;10.004;2024-03-02T00:12:38;20.25;;;12.98;;
45065;SDS011;30830;53.704;10.004;2024-03-02T00:15:05;19.83;;;12.18;;
45065;SDS011;30830;53.704;10.004;2024-03-02T00:17:53;19.52;;;12.90;;
45065;SDS011;30830;53.704;10.004;2024-03-02T00:20:19;16.80;;;11.80;;
45065;SDS011;30830;53.704;10.004;2024-03-02T00:22:47;18.60;;;12.20;;
45065;SDS011;30830;53.704;10.004;2024-03-02T00:25:13;22.08;;;13.68;;
45065;SDS011;30830;53.704;10.004;2024-03-02T00:27:39;18.02;;;12.98;;
45065;SDS011;30830;53.704;10.004;2024-03-02T00:30:06;20.83;;;12.88;;
45065;SDS011;30830;53.704;10.004;2024-03-02T00:33:00;22.70;;;13.60;;
45065;SDS011;30830;53.704;10.004;2024-03-02T00:35:25;19.67;;;13.13;;
45065;SDS011;30830;53.704;10.004;2024-03-02T00:37:51;21.27;;;13.63;;
45065;SDS011;30830;53.704;10.004;2024-03-02T00:40:16;20.67;;;12.63;;
45065;SDS011;30830;53.704;10.004;2024-03-02T00:42:44;20.88;;;12.55;;
45065;SDS011;30830;53.704;10.004;2024-03-02T00:45:09;19.15;;;12.60;;
45065;SDS011;30830;53.704;10.004;2024-03-02T00:47:41;24.83;;;14.00;;
45065;SDS011;30830;53.704;10.004;2024-03-02T00:50:07;23.60;;;13.68;;
45065;SDS011;30830;53.704;10.004;2024-03-02T00:52:34;25.83;;;13.68;;
45065;SDS011;30830;53.704;10.004;2024-03-02T00:54:59;24.70;;;15.52;;
45065;SDS011;30830;53.704;10.004;2024-03-02T00:57:25;24.70;;;14.57;;
45065;SDS011;30830;53.704;10.004;2024-03-02T00:59:51;24.27;;;13.65;;
45065;SDS011;30830;53.704;10.004;2024-03-02T01:02:17;26.30;;;15.50;;
45065;SDS011;30830;53.704;10.004;2024-03-02T01:04:45;25.45;;;14.50;;
45065;SDS011;30830;53.704;10.004;2024-03-02T01:07:10;22.83;;;14.20;;
45065;SDS011;30830;53.704;10.004;2024-03-02T01:09:36;26.08;;;16.58;;
45065;SDS011;30830;53.704;10.004;2024-03-02T01:12:01;24.65;;;16.48;;
45065;SDS011;30830;53.704;10.004;2024-03-02T01:14:27;30.10;;;16.13;;
45065;SDS011;30830;53.704;10.004;2024-03-02T01:16:53;27.15;;;15.63;;
45065;SDS011;30830;53.704;10.004;2024-03-02T01:19:18;26.65;;;16.27;;
45065;SDS011;30830;53.704;10.004;2024-03-02T01:21:44;24.02;;;14.63;;
45065;SDS011;30830;53.704;10.004;2024-03-02T01:24:10;25.48;;;16.33;;
45065;SDS011;30830;53.704;10.004;2024-03-02T01:26:35;28.17;;;16.67;;
45065;SDS011;30830;53.704;10.004;2024-03-02T01:29:01;24.45;;;14.95;;
45065;SDS011;30830;53.704;10.004;2024-03-02T01:31:26;28.38;;;15.82;;
45065;SDS011;30830;53.704;10.004;2024-03-02T01:33:52;25.50;;;15.40;;
45065;SDS011;30830;53.704;10.004;2024-03-02T01:36:17;25.98;;;16.42;;
45065;SDS011;30830;53.704;10.004;2024-03-02T01:38:43;26.13;;;16.40;;
45065;SDS011;30830;53.704;10.004;2024-03-02T01:41:09;27.95;;;16.90;;
45065;SDS011;30830;53.704;10.004;2024-03-02T01:43:34;31.02;;;17.02;;
45065;SDS011;30830;53.704;10.004;2024-03-02T01:46:00;24.92;;;15.73;;
45065;SDS011;30830;53.704;10.004;2024-03-02T01:48:26;27.15;;;16.33;;
45065;SDS011;30830;53.704;10.004;2024-03-02T01:50:51;23.63;;;16.00;;
45065;SDS011;30830;53.704;10.004;2024-03-02T01:53:17;28.45;;;16.98;;
45065;SDS011;30830;53.704;10.004;2024-03-02T01:55:42;26.48;;;15.77;;
45065;SDS011;30830;53.704;10.004;2024-03-02T01:58:08;26.20;;;16.55;;
45065;SDS011;30830;53.704;10.004;2024-03-02T02:00:34;24.42;;;16.13;;
45065;SDS011;30830;53.704;10.004;2024-03-02T02:02:59;23.63;;;15.02;;
45065;SDS011;30830;53.704;10.004;2024-03-02T02:05:25;28.75;;;16.85;;
45065;SDS011;30830;53.704;10.004;2024-03-02T02:07:50;27.15;;;17.67;;
45065;SDS011;30830;53.704;10.004;2024-03-02T02:10:16;27.90;;;17.25;;
45065;SDS011;30830;53.704;10.004;2024-03-02T02:12:42;26.80;;;16.42;;
45065;SDS011;30830;53.704;10.004;2024-03-02T02:17:49;32.30;;;18.25;;
45065;SDS011;30830;53.704;10.004;2024-03-02T02:20:15;25.50;;;16.88;;
45065;SDS011;30830;53.704;10.004;2024-03-02T02:22:40;31.67;;;18.33;;
45065;SDS011;30830;53.704;10.004;2024-03-02T02:25:24;30.23;;;18.38;;
45065;SDS011;30830;53.704;10.004;2024-03-02T02:27:50;31.48;;;19.23;;
45065;SDS011;30830;53.704;10.004;2024-03-02T02:30:19;32.03;;;17.65;;
45065;SDS011;30830;53.704;10.004;2024-03-02T02:32:45;30.75;;;18.65;;
45065;SDS011;30830;53.704;10.004;2024-03-02T02:35:11;30.50;;;18.65;;
45065;SDS011;30830;53.704;10.004;2024-03-02T02:37:37;29.60;;;18.17;;
45065;SDS011;30830;53.704;10.004;2024-03-02T02:40:03;26.67;;;16.17;;
45065;SDS011;30830;53.704;10.004;2024-03-02T02:42:30;27.88;;;17.95;;
45065;SDS011;30830;53.704;10.004;2024-03-02T02:44:55;30.08;;;18.02;;
45065;SDS011;30830;53.704;10.004;2024-03-02T02:47:21;31.67;;;19.17;;
45065;SDS011;30830;53.704;10.004;2024-03-02T02:49:46;30.45;;;18.27;;
45065;SDS011;30830;53.704;10.004;2024-03-02T02:52:12;30.55;;;19.98;;
45065;SDS011;30830;53.704;10.004;2024-03-02T02:54:37;29.63;;;17.67;;
45065;SDS011;30830;53.704;10.004;2024-03-02T02:57:03;27.08;;;17.65;;
45065;SDS011;30830;53.704;10.004;2024-03-02T02:59:29;32.72;;;17.70;;
45065;SDS011;30830;53.704;10.004;2024-03-02T03:01:54;26.58;;;17.40;;
45065;SDS011;30830;53.704;10.004;2024-03-02T03:04:20;30.27;;;18.17;;
45065;SDS011;30830;53.704;10.004;2024-03-02T03:06:45;31.40;;;19.13;;
45065;SDS011;30830;53.704;10.004;2024-03-02T03:09:11;33.92;;;19.80;;
45065;SDS011;30830;53.704;10.004;2024-03-02T03:11:37;32.15;;;18.73;;
45065;SDS011;30830;53.704;10.004;2024-03-02T03:14:05;31.08;;;18.48;;
45065;SDS011;30830;53.704;10.004;2024-03-02T03:16:31;31.17;;;17.65;;
45065;SDS011;30830;53.704;10.004;2024-03-02T03:18:56;30.23;;;17.38;;
45065;SDS011;30830;53.704;10.004;2024-03-02T03:21:22;30.27;;;18.05;;
45065;SDS011;30830;53.704;10.004;2024-03-02T03:23:48;31.63;;;19.92;;
45065;SDS011;30830;53.704;10.004;2024-03-02T03:26:14;31.10;;;18.67;;
45065;SDS011;30830;53.704;10.004;2024-03-02T03:28:39;27.10;;;17.05;;
45065;SDS011;30830;53.704;10.004;2024-03-02T03:31:05;31.70;;;18.23;;
45065;SDS011;30830;53.704;10.004;2024-03-02T03:33:31;27.08;;;17.70;;
45065;SDS011;30830;53.704;10.004;2024-03-02T03:35:56;29.60;;;19.55;;
45065;SDS011;30830;53.704;10.004;2024-03-02T03:38:22;27.63;;;17.17;;
45065;SDS011;30830;53.704;10.004;2024-03-02T03:40:47;30.98;;;18.67;;
45065;SDS011;30830;53.704;10.004;2024-03-02T03:43:13;29.75;;;17.73;;
45065;SDS011;30830;53.704;10.004;2024-03-02T03:45:38;28.45;;;16.85;;
45065;SDS011;30830;53.704;10.004;2024-03-02T03:48:04;28.77;;;16.63;;
45065;SDS011;30830;53.704;10.004;2024-03-02T03:50:30;29.48;;;18.80;;
45065;SDS011;30830;53.704;10.004;2024-03-02T03:52:55;26.38;;;17.92;;
45065;SDS011;30830;53.704;10.004;2024-03-02T03:55:21;32.88;;;18.95;;
45065;SDS011;30830;53.704;10.004;2024-03-02T03:57:46;30.10;;;18.65;;
45065;SDS011;30830;53.704;10.004;2024-03-02T04:00:12;26.65;;;18.45;;
45065;SDS011;30830;53.704;10.004;2024-03-02T04:02:38;29.02;;;17.85;;
45065;SDS011;30830;53.704;10.004;2024-03-02T04:05:04;29.10;;;17.88;;
45065;SDS011;30830;53.704;10.004;2024-03-02T04:07:33;30.02;;;17.80;;
45065;SDS011;30830;53.704;10.004;2024-03-02T04:10:09;29.02;;;18.05;;
45065;SDS011;30830;53.704;10.004;2024-03-02T04:12:38;30.90;;;18.17;;
45065;SDS011;30830;53.704;10.004;2024-03-02T04:15:04;28.42;;;18.33;;
45065;SDS011;30830;53.704;10.004;2024-03-02T04:17:31;28.85;;;18.20;;
45065;SDS011;30830;53.704;10.004;2024-03-02T04:19:58;27.77;;;18.17;;
45065;SDS011;30830;53.704;10.004;2024-03-02T04:22:25;27.27;;;17.58;;
45065;SDS011;30830;53.704;10.004;2024-03-02T04:24:51;27.83;;;17.58;;
45065;SDS011;30830;53.704;10.004;2024-03-02T04:27:17;27.48;;;17.30;;
45065;SDS011;30830;53.704;10.004;2024-03-02T04:29:42;24.80;;;16.38;;
45065;SDS011;30830;53.704;10.004;2024-03-02T04:32:08;28.45;;;17.85;;
45065;SDS011;30830;53.704;10.004;2024-03-02T04:34:33;28.38;;;17.35;;
45065;SDS011;30830;53.704;10.004;2024-03-02T04:36:59;30.77;;;17.58;;
45065;SDS011;30830;53.704;10.004;2024-03-02T04:39:25;29.88;;;17.65;;
45065;SDS011;30830;53.704;10.004;2024-03-02T04:41:50;27.95;;;17.15;;
45065;SDS011;30830;53.704;10.004;2024-03-02T04:44:16;26.13;;;15.68;;
45065;SDS011;30830;53.704;10.004;2024-03-02T04:46:41;28.08;;;17.10;;
45065;SDS011;30830;53.704;10.004;2024-03-02T04:49:07;30.15;;;17.25;;
45065;SDS011;30830;53.704;10.004;2024-03-02T04:51:33;24.48;;;16.52;;
45065;SDS011;30830;53.704;10.004;2024-03-02T04:53:59;25.48;;;16.15;;
45065;SDS011;30830;53.704;10.004;2024-03-02T04:56:24;26.38;;;16.10;;
45065;SDS011;30830;53.704;10.004;2024-03-02T04:59:08;27.95;;;17.83;;
45065;SDS011;30830;53.704;10.004;2024-03-02T05:01:34;26.42;;;16.92;;
45065;SDS011;30830;53.704;10.004;2024-03-02T05:03:59;24.02;;;15.75;;
45065;SDS011;30830;53.704;10.004;2024-03-02T05:06:25;25.67;;;15.77;;
45065;SDS011;30830;53.704;10.004;2024-03-02T05:08:50;27.63;;;16.63;;
45065;SDS011;30830;53.704;10.004;2024-03-02T05:11:16;21.73;;;15.88;;
45065;SDS011;30830;53.704;10.004;2024-03-02T05:14:07;24.63;;;16.60;;
45065;SDS011;30830;53.704;10.004;2024-03-02T05:16:33;25.25;;;15.98;;
45065;SDS011;30830;53.704;10.004;2024-03-02T05:18:59;24.77;;;15.52;;
45065;SDS011;30830;53.704;10.004;2024-03-02T05:21:25;25.38;;;15.57;;
45065;SDS011;30830;53.704;10.004;2024-03-02T05:23:50;22.80;;;15.30;;
45065;SDS011;30830;53.704;10.004;2024-03-02T05:26:16;28.98;;;18.40;;
45065;SDS011;30830;53.704;10.004;2024-03-02T05:28:42;23.25;;;16.13;;
45065;SDS011;30830;53.704;10.004;2024-03-02T05:31:11;27.95;;;17.20;;
45065;SDS011;30830;53.704;10.004;2024-03-02T05:33:39;22.98;;;15.05;;
45065;SDS011;30830;53.704;10.004;2024-03-02T05:36:08;27.33;;;16.90;;
45065;SDS011;30830;53.704;10.004;2024-03-02T05:38:37;24.40;;;17.38;;
45065;SDS011;30830;53.704;10.004;2024-03-02T05:41:02;30.00;;;17.77;;
45065;SDS011;30830;53.704;10.004;2024-03-02T05:43:28;26.75;;;15.88;;
45065;SDS011;30830;53.704;10.004;2024-03-02T05:45:54;29.08;;;16.27;;
45065;SDS011;30830;53.704;10.004;2024-03-02T05:48:19;28.15;;;16.90;;
45065;SDS011;30830;53.704;10.004;2024-03-02T05:50:45;25.30;;;15.80;;
45065;SDS011;30830;53.704;10.004;2024-03-02T05:53:11;27.45;;;17.35;;
45065;SDS011;30830;53.704;10.004;2024-03-02T05:55:36;23.52;;;16.90;;
45065;SDS011;30830;53.704;10.004;2024-03-02T05:58:02;28.05;;;16.40;;
45065;SDS011;30830;53.704;10.004;2024-03-02T06:00:46;26.20;;;15.93;;
45065;SDS011;30830;53.704;10.004;2024-03-02T06:03:11;25.92;;;16.00;;
45065;SDS011;30830;53.704;10.004;2024-03-02T06:05:37;24.40;;;16.08;;
45065;SDS011;30830;53.704;10.004;2024-03-02T06:08:03;26.70;;;16.77;;
45065;SDS011;30830;53.704;10.004;2024-03-02T06:10:28;25.70;;;15.73;;
45065;SDS011;30830;53.704;10.004;2024-03-02T06:12:54;28.55;;;16.30;;
45065;SDS011;30830;53.704;10.004;2024-03-02T06:15:19;24.98;;;15.80;;
45065;SDS011;30830;53.704;10.004;2024-03-02T06:17:45;23.05;;;14.93;;
45065;SDS011;30830;53.704;10.004;2024-03-02T06:20:11;28.85;;;17.05;;
45065;SDS011;30830;53.704;10.004;2024-03-02T06:22:36;26.52;;;15.57;;
45065;SDS011;30830;53.704;10.004;2024-03-02T06:25:02;26.10;;;16.40;;
45065;SDS011;30830;53.704;10.004;2024-03-02T06:27:28;22.83;;;15.23;;
45065;SDS011;30830;53.704;10.004;2024-03-02T06:29:54;23.02;;;14.85;;
45065;SDS011;30830;53.704;10.004;2024-03-02T06:32:19;25.92;;;15.45;;
45065;SDS011;30830;53.704;10.004;2024-03-02T06:34:45;23.25;;;14.45;;
45065;SDS011;30830;53.704;10.004;2024-03-02T06:37:11;23.33;;;14.65;;
45065;SDS011;30830;53.704;10.004;2024-03-02T06:39:36;20.73;;;14.63;;
45065;SDS011;30830;53.704;10.004;2024-03-02T06:42:02;24.27;;;15.02;;
45065;SDS011;30830;53.704;10.004;2024-03-02T06:44:28;24.95;;;15.50;;
45065;SDS011;30830;53.704;10.004;2024-03-02T06:46:53;26.63;;;16.13;;
45065;SDS011;30830;53.704;10.004;2024-03-02T06:49:19;25.75;;;16.08;;
45065;SDS011;30830;53.704;10.004;2024-03-02T06:51:44;29.33;;;16.35;;
45065;SDS011;30830;53.704;10.004;2024-03-02T06:54:10;29.85;;;16.15;;
45065;SDS011;30830;53.704;10.004;2024-03-02T06:56:35;25.58;;;14.82;;
45065;SDS011;30830;53.704;10.004;2024-03-02T06:59:02;24.63;;;16.00;;
45065;SDS011;30830;53.704;10.004;2024-03-02T07:01:28;29.42;;;15.77;;
45065;SDS011;30830;53.704;10.004;2024-03-02T07:03:53;25.17;;;15.65;;
45065;SDS011;30830;53.704;10.004;2024-03-02T07:06:19;24.40;;;15.90;;
45065;SDS011;30830;53.704;10.004;2024-03-02T07:08:44;25.63;;;15.73;;
45065;SDS011;30830;53.704;10.004;2024-03-02T07:11:10;25.83;;;16.17;;
45065;SDS011;30830;53.704;10.004;2024-03-02T07:13:35;28.42;;;16.15;;
45065;SDS011;30830;53.704;10.004;2024-03-02T07:16:01;26.90;;;15.40;;
45065;SDS011;30830;53.704;10.004;2024-03-02T07:18:27;25.70;;;15.90;;
45065;SDS011;30830;53.704;10.004;2024-03-02T07:20:53;26.02;;;16.17;;
45065;SDS011;30830;53.704;10.004;2024-03-02T07:23:18;23.02;;;15.38;;
45065;SDS011;30830;53.704;10.004;2024-03-02T07:25:45;21.02;;;15.05;;
45065;SDS011;30830;53.704;10.004;2024-03-02T07:28:11;25.02;;;15.75;;
45065;SDS011;30830;53.704;10.004;2024-03-02T07:30:36;21.77;;;15.10;;
45065;SDS011;30830;53.704;10.004;2024-03-02T07:33:04;23.45;;;15.27;;
45065;SDS011;30830;53.704;10.004;2024-03-02T07:35:30;23.92;;;15.02;;
45065;SDS011;30830;53.704;10.004;2024-03-02T07:37:56;24.35;;;15.85;;
45065;SDS011;30830;53.704;10.004;2024-03-02T07:40:22;25.00;;;15.88;;
45065;SDS011;30830;53.704;10.004;2024-03-02T07:42:48;24.60;;;15.77;;
45065;SDS011;30830;53.704;10.004;2024-03-02T07:45:13;24.73;;;15.45;;
45065;SDS011;30830;53.704;10.004;2024-03-02T07:47:39;24.40;;;15.50;;
45065;SDS011;30830;53.704;10.004;2024-03-02T07:50:06;25.13;;;15.10;;
45065;SDS011;30830;53.704;10.004;2024-03-02T07:52:32;23.30;;;15.32;;
45065;SDS011;30830;53.704;10.004;2024-03-02T07:54:58;23.42;;;14.85;;
45065;SDS011;30830;53.704;10.004;2024-03-02T07:57:24;26.42;;;16.88;;
45065;SDS011;30830;53.704;10.004;2024-03-02T07:59:50;24.33;;;16.25;;
45065;SDS011;30830;53.704;10.004;2024-03-02T08:02:15;21.88;;;14.50;;
45065;SDS011;30830;53.704;10.004;2024-03-02T08:04:41;23.52;;;15.20;;
45065;SDS011;30830;53.704;10.004;2024-03-02T08:07:07;22.58;;;15.25;;
45065;SDS011;30830;53.704;10.004;2024-03-02T08:09:34;22.52;;;14.07;;
45065;SDS011;30830;53.704;10.004;2024-03-02T08:11:59;21.52;;;14.95;;
45065;SDS011;30830;53.704;10.004;2024-03-02T08:14:25;23.50;;;15.35;;
45065;SDS011;30830;53.704;10.004;2024-03-02T08:16:51;22.23;;;14.63;;
45065;SDS011;30830;53.704;10.004;2024-03-02T08:19:16;24.42;;;14.82;;
45065;SDS011;30830;53.704;10.004;2024-03-02T08:21:42;23.00;;;14.65;;
45065;SDS011;30830;53.704;10.004;2024-03-02T08:24:08;23.13;;;13.93;;
45065;SDS011;30830;53.704;10.004;2024-03-02T08:26:34;22.50;;;15.15;;
45065;SDS011;30830;53.704;10.004;2024-03-02T08:29:00;22.80;;;14.52;;
45065;SDS011;30830;53.704;10.004;2024-03-02T08:31:27;25.13;;;15.07;;
45065;SDS011;30830;53.704;10.004;2024-03-02T08:33:52;22.15;;;14.80;;
45065;SDS011;30830;53.704;10.004;2024-03-02T08:36:18;21.13;;;15.23;;
45065;SDS011;30830;53.704;10.004;2024-03-02T08:38:44;19.02;;;13.68;;
45065;SDS011;30830;53.704;10.004;2024-03-02T08:41:10;21.88;;;14.35;;
45065;SDS011;30830;53.704;10.004;2024-03-02T08:43:38;22.10;;;14.90;;
45065;SDS011;30830;53.704;10.004;2024-03-02T08:46:06;21.73;;;14.00;;
45065;SDS011;30830;53.704;10.004;2024-03-02T08:48:32;21.70;;;13.85;;
45065;SDS011;30830;53.704;10.004;2024-03-02T08:50:57;20.65;;;14.02;;
45065;SDS011;30830;53.704;10.004;2024-03-02T08:53:23;20.98;;;14.25;;
45065;SDS011;30830;53.704;10.004;2024-03-02T08:55:49;22.67;;;14.82;;
45065;SDS011;30830;53.704;10.004;2024-03-02T08:58:15;21.15;;;13.90;;
45065;SDS011;30830;53.704;10.004;2024-03-02T09:00:41;23.50;;;14.68;;
45065;SDS011;30830;53.704;10.004;2024-03-02T09:03:07;21.13;;;13.57;;
45065;SDS011;30830;53.704;10.004;2024-03-02T09:05:32;24.60;;;15.25;;
45065;SDS011;30830;53.704;10.004;2024-03-02T09:07:58;20.08;;;13.30;;
45065;SDS011;30830;53.704;10.004;2024-03-02T09:10:23;19.00;;;13.68;;
45065;SDS011;30830;53.704;10.004;2024-03-02T09:12:49;22.25;;;15.07;;
45065;SDS011;30830;53.704;10.004;2024-03-02T09:15:15;18.63;;;12.77;;
45065;SDS011;30830;53.704;10.004;2024-03-02T09:17:41;19.70;;;13.23;;
45065;SDS011;30830;53.704;10.004;2024-03-02T09:20:07;23.27;;;14.35;;
45065;SDS011;30830;53.704;10.004;2024-03-02T09:22:32;20.55;;;13.15;;
45065;SDS011;30830;53.704;10.004;2024-03-02T09:24:58;20.45;;;15.07;;
45065;SDS011;30830;53.704;10.004;2024-03-02T09:27:24;24.35;;;14.30;;
45065;SDS011;30830;53.704;10.004;2024-03-02T09:29:50;22.75;;;14.50;;
45065;SDS011;30830;53.704;10.004;2024-03-02T09:32:16;21.25;;;13.35;;
45065;SDS011;30830;53.704;10.004;2024-03-02T09:34:41;19.27;;;13.10;;
45065;SDS011;30830;53.704;10.004;2024-03-02T09:37:07;19.80;;;12.63;;
45065;SDS011;30830;53.704;10.004;2024-03-02T09:39:32;19.77;;;13.23;;
45065;SDS011;30830;53.704;10.004;2024-03-02T09:42:01;19.23;;;13.35;;
45065;SDS011;30830;53.704;10.004;2024-03-02T09:44:29;18.15;;;12.88;;
45065;SDS011;30830;53.704;10.004;2024-03-02T09:46:55;17.60;;;12.60;;
45065;SDS011;30830;53.704;10.004;2024-03-02T09:49:20;19.35;;;11.98;;
45065;SDS011;30830;53.704;10.004;2024-03-02T09:51:47;17.65;;;12.05;;
45065;SDS011;30830;53.704;10.004;2024-03-02T09:54:16;19.33;;;12.93;;
45065;SDS011;30830;53.704;10.004;2024-03-02T09:56:43;20.63;;;12.35;;
45065;SDS011;30830;53.704;10.004;2024-03-02T09:59:09;16.90;;;11.50;;
45065;SDS011;30830;53.704;10.004;2024-03-02T10:01:35;21.00;;;12.95;;
45065;SDS011;30830;53.704;10.004;2024-03-02T10:04:01;21.73;;;13.45;;
45065;SDS011;30830;53.704;10.004;2024-03-02T10:06:29;20.20;;;12.02;;
45065;SDS011;30830;53.704;10.004;2024-03-02T10:08:55;18.42;;;11.27;;
45065;SDS011;30830;53.704;10.004;2024-03-02T10:14:04;19.23;;;12.25;;
45065;SDS011;30830;53.704;10.004;2024-03-02T10:16:33;17.08;;;11.85;;
45065;SDS011;30830;53.704;10.004;2024-03-02T10:21:43;17.63;;;11.25;;
45065;SDS011;30830;53.704;10.004;2024-03-02T10:24:09;14.45;;;10.65;;
45065;SDS011;30830;53.704;10.004;2024-03-02T10:26:35;15.05;;;11.13;;
45065;SDS011;30830;53.704;10.004;2024-03-02T10:29:01;14.38;;;10.02;;
45065;SDS011;30830;53.704;10.004;2024-03-02T10:31:27;16.40;;;9.73;;
45065;SDS011;30830;53.704;10.004;2024-03-02T10:33:59;15.60;;;10.45;;
45065;SDS011;30830;53.704;10.004;2024-03-02T10:36:25;16.65;;;10.18;;
45065;SDS011;30830;53.704;10.004;2024-03-02T10:38:51;13.27;;;10.07;;
45065;SDS011;30830;53.704;10.004;2024-03-02T10:41:21;14.40;;;9.70;;
45065;SDS011;30830;53.704;10.004;2024-03-02T10:43:49;16.55;;;10.00;;
45065;SDS011;30830;53.704;10.004;2024-03-02T10:46:19;12.93;;;8.68;;
45065;SDS011;30830;53.704;10.004;2024-03-02T10:48:45;16.45;;;11.32;;
45065;SDS011;30830;53.704;10.004;2024-03-02T10:51:11;13.98;;;9.35;;
45065;SDS011;30830;53.704;10.004;2024-03-02T10:53:37;13.75;;;8.90;;
45065;SDS011;30830;53.704;10.004;2024-03-02T10:56:04;12.82;;;8.65;;
45065;SDS011;30830;53.704;10.004;2024-03-02T10:58:32;12.55;;;8.45;;
45065;SDS011;30830;53.704;10.004;2024-03-02T11:01:00;14.38;;;8.52;;
45065;SDS011;30830;53.704;10.004;2024-03-02T11:03:33;13.93;;;10.43;;
45065;SDS011;30830;53.704;10.004;2024-03-02T11:06:00;12.70;;;9.23;;
45065;SDS011;30830;53.704;10.004;2024-03-02T11:08:31;12.35;;;8.18;;
45065;SDS011;30830;53.704;10.004;2024-03-02T11:11:02;11.85;;;8.63;;
45065;SDS011;30830;53.704;10.004;2024-03-02T11:13:32;11.38;;;8.88;;
45065;SDS011;30830;53.704;10.004;2024-03-02T11:15:59;12.75;;;9.20;;
45065;SDS011;30830;53.704;10.004;2024-03-02T11:18:31;14.57;;;9.63;;
45065;SDS011;30830;53.704;10.004;2024-03-02T11:20:58;10.40;;;8.02;;
45065;SDS011;30830;53.704;10.004;2024-03-02T11:23:34;12.02;;;8.65;;
45065;SDS011;30830;53.704;10.004;2024-03-02T11:28:44;11.05;;;7.50;;
45065;SDS011;30830;53.704;10.004;2024-03-02T11:31:11;12.13;;;7.88;;
45065;SDS011;30830;53.704;10.004;2024-03-02T11:33:37;13.25;;;8.32;;
45065;SDS011;30830;53.704;10.004;2024-03-02T11:36:02;11.40;;;8.10;;
45065;SDS011;30830;53.704;10.004;2024-03-02T11:38:32;13.13;;;8.07;;
45065;SDS011;30830;53.704;10.004;2024-03-02T11:40:59;12.13;;;8.43;;
45065;SDS011;30830;53.704;10.004;2024-03-02T11:43:27;13.32;;;7.50;;
45065;SDS011;30830;53.704;10.004;2024-03-02T11:46:00;10.75;;;7.47;;
45065;SDS011;30830;53.704;10.004;2024-03-02T11:48:29;12.13;;;7.80;;
45065;SDS011;30830;53.704;10.004;2024-03-02T11:50:57;10.23;;;7.75;;
45065;SDS011;30830;53.704;10.004;2024-03-02T11:53:24;11.23;;;7.85;;
45065;SDS011;30830;53.704;10.004;2024-03-02T11:55:55;11.43;;;7.28;;
45065;SDS011;30830;53.704;10.004;2024-03-02T11:58:21;10.82;;;8.13;;
45065;SDS011;30830;53.704;10.004;2024-03-02T12:00:54;11.70;;;7.30;;
45065;SDS011;30830;53.704;10.004;2024-03-02T12:03:21;11.68;;;7.85;;
45065;SDS011;30830;53.704;10.004;2024-03-02T12:05:51;11.27;;;7.47;;
45065;SDS011;30830;53.704;10.004;2024-03-02T12:08:20;10.65;;;7.60;;
45065;SDS011;30830;53.704;10.004;2024-03-02T12:11:00;12.73;;;7.85;;
45065;SDS011;30830;53.704;10.004;2024-03-02T12:13:26;9.45;;;6.57;;
45065;SDS011;30830;53.704;10.004;2024-03-02T12:15:53;11.25;;;7.38;;
45065;SDS011;30830;53.704;10.004;2024-03-02T12:18:23;11.68;;;7.72;;
45065;SDS011;30830;53.704;10.004;2024-03-02T12:20:49;11.77;;;7.95;;
45065;SDS011;30830;53.704;10.004;2024-03-02T12:23:21;10.23;;;7.93;;
45065;SDS011;30830;53.704;10.004;2024-03-02T12:25:47;11.95;;;7.78;;
45065;SDS011;30830;53.704;10.004;2024-03-02T12:28:13;12.25;;;7.90;;
45065;SDS011;30830;53.704;10.004;2024-03-02T12:30:38;9.77;;;7.20;;
45065;SDS011;30830;53.704;10.004;2024-03-02T12:33:04;10.45;;;6.47;;
45065;SDS011;30830;53.704;10.004;2024-03-02T12:35:30;13.18;;;8.55;;
45065;SDS011;30830;53.704;10.004;2024-03-02T12:37:56;9.20;;;6.80;;
45065;SDS011;30830;53.704;10.004;2024-03-02T12:40:23;9.32;;;7.53;;
45065;SDS011;30830;53.704;10.004;2024-03-02T12:42:49;10.77;;;7.65;;
45065;SDS011;30830;53.704;10.004;2024-03-02T12:45:15;10.98;;;7.20;;
45065;SDS011;30830;53.704;10.004;2024-03-02T12:47:42;12.35;;;7.22;;
45065;SDS011;30830;53.704;10.004;2024-03-02T12:50:08;8.93;;;6.50;;
45065;SDS011;30830;53.704;10.004;2024-03-02T12:52:35;9.77;;;6.45;;
45065;SDS011;30830;53.704;10.004;2024-03-02T12:55:02;9.20;;;6.78;;
45065;SDS011;30830;53.704;10.004;2024-03-02T12:57:31;9.20;;;7.05;;
45065;SDS011;30830;53.704;10.004;2024-03-02T12:59:58;9.65;;;6.63;;
45065;SDS011;30830;53.704;10.004;2024-03-02T13:02:26;8.27;;;6.22;;
45065;SDS011;30830;53.704;10.004;2024-03-02T13:04:53;8.57;;;5.90;;
45065;SDS011;30830;53.704;10.004;2024-03-02T13:07:19;8.85;;;6.90;;
45065;SDS011;30830;53.704;10.004;2024-03-02T13:09:47;10.40;;;7.80;;
45065;SDS011;30830;53.704;10.004;2024-03-02T13:12:14;11.80;;;7.55;;
45065;SDS011;30830;53.704;10.004;2024-03-02T13:14:42;10.65;;;7.45;;
45065;SDS011;30830;53.704;10.004;2024-03-02T13:17:08;11.38;;;7.35;;
45065;SDS011;30830;53.704;10.004;2024-03-02T13:19:34;10.43;;;7.03;;
45065;SDS011;30830;53.704;10.004;2024-03-02T13:22:00;14.75;;;7.43;;
45065;SDS011;30830;53.704;10.004;2024-03-02T13:24:28;13.93;;;10.10;;
45065;SDS011;30830;53.704;10.004;2024-03-02T13:26:55;11.02;;;7.65;;
45065;SDS011;30830;53.704;10.004;2024-03-02T13:29:23;10.65;;;7.75;;
45065;SDS011;30830;53.704;10.004;2024-03-02T13:31:49;11.50;;;7.95;;
45065;SDS011;30830;53.704;10.004;2024-03-02T13:34:15;10.52;;;7.57;;
45065;SDS011;30830;53.704;10.004;2024-03-02T13:36:40;9.23;;;6.70;;
45065;SDS011;30830;53.704;10.004;2024-03-02T13:39:06;10.43;;;7.15;;
45065;SDS011;30830;53.704;10.004;2024-03-02T13:41:35;9.35;;;6.55;;
45065;SDS011;30830;53.704;10.004;2024-03-02T13:44:01;12.38;;;8.65;;
45065;SDS011;30830;53.704;10.004;2024-03-02T13:46:26;12.50;;;8.43;;
45065;SDS011;30830;53.704;10.004;2024-03-02T13:48:53;8.63;;;6.97;;
45065;SDS011;30830;53.704;10.004;2024-03-02T13:51:19;8.82;;;6.47;;
45065;SDS011;30830;53.704;10.004;2024-03-02T13:53:45;8.05;;;6.40;;
45065;SDS011;30830;53.704;10.004;2024-03-02T13:56:11;9.02;;;6.53;;
45065;SDS011;30830;53.704;10.004;2024-03-02T13:58:36;10.15;;;6.65;;
45065;SDS011;30830;53.704;10.004;2024-03-02T14:01:02;8.38;;;6.57;;
45065;SDS011;30830;53.704;10.004;2024-03-02T14:03:29;10.75;;;6.70;;
45065;SDS011;30830;53.704;10.004;2024-03-02T14:05:56;10.15;;;7.07;;
45065;SDS011;30830;53.704;10.004;2024-03-02T14:08:21;7.05;;;5.78;;
45065;SDS011;30830;53.704;10.004;2024-03-02T14:10:48;10.07;;;6.93;;
45065;SDS011;30830;53.704;10.004;2024-03-02T14:13:13;8.45;;;6.35;;
45065;SDS011;30830;53.704;10.004;2024-03-02T14:15:40;9.82;;;6.03;;
45065;SDS011;30830;53.704;10.004;2024-03-02T14:18:06;9.73;;;6.30;;
45065;SDS011;30830;53.704;10.004;2024-03-02T14:20:32;7.78;;;6.32;;